<?xml version="1.0" encoding="UTF-8" standalone="no" ?>
<gpx xmlns="http://www.topografix.com/GPX/1/1" xmlns:xsi="http://www.w3.org/2001/XMLSchema-instance" xsi:schemaLocation="http://www.topografix.com/GPX/1/1 http://www.topografix.com/GPX/1/1/gpx.xsd" version="1.1" creator="VisuGPX - https://www.visugpx.com">
  <metadata>
    <name>14761614-ROV Conflans - 20220529</name>
  </metadata>
  <trk>
    <name><![CDATA[14761614-ROV Conflans - 20220529]]></name>
    <trkseg>
      <trkpt lat="48.99045" lon="2.08683">
        <ele>22.7</ele>
        <time>2022-05-15T13:25:48Z</time>
      </trkpt>
      <trkpt lat="48.9912" lon="2.0863">
        <ele>38.7</ele>
        <time>2022-05-15T13:27:38Z</time>
      </trkpt>
      <trkpt lat="48.99137" lon="2.08707">
        <ele>38.7</ele>
        <time>2022-05-15T13:28:49Z</time>
      </trkpt>
      <trkpt lat="48.99148" lon="2.08765">
        <ele>33.7</ele>
        <time>2022-05-15T13:29:42Z</time>
      </trkpt>
      <trkpt lat="48.99144" lon="2.08793">
        <ele>30.1</ele>
        <time>2022-05-15T13:30:07Z</time>
      </trkpt>
      <trkpt lat="48.99151" lon="2.08821">
        <ele>30.6</ele>
        <time>2022-05-15T13:30:34Z</time>
      </trkpt>
      <trkpt lat="48.99154" lon="2.08837">
        <ele>31.2</ele>
        <time>2022-05-15T13:30:48Z</time>
      </trkpt>
      <trkpt lat="48.99172" lon="2.08875">
        <ele>32.6</ele>
        <time>2022-05-15T13:31:29Z</time>
      </trkpt>
      <trkpt lat="48.99168" lon="2.08907">
        <ele>29</ele>
        <time>2022-05-15T13:31:58Z</time>
      </trkpt>
      <trkpt lat="48.99219" lon="2.0901">
        <ele>29.4</ele>
        <time>2022-05-15T13:33:51Z</time>
      </trkpt>
      <trkpt lat="48.99251" lon="2.09025">
        <ele>34.2</ele>
        <time>2022-05-15T13:34:35Z</time>
      </trkpt>
      <trkpt lat="48.99249" lon="2.09069">
        <ele>29.9</ele>
        <time>2022-05-15T13:35:14Z</time>
      </trkpt>
      <trkpt lat="48.99267" lon="2.09125">
        <ele>29.4</ele>
        <time>2022-05-15T13:36:09Z</time>
      </trkpt>
      <trkpt lat="48.99264" lon="2.09222">
        <ele>25.5</ele>
        <time>2022-05-15T13:37:34Z</time>
      </trkpt>
      <trkpt lat="48.99259" lon="2.09237">
        <ele>25.3</ele>
        <time>2022-05-15T13:37:48Z</time>
      </trkpt>
      <trkpt lat="48.99243" lon="2.09193">
        <ele>25.5</ele>
        <time>2022-05-15T13:38:32Z</time>
      </trkpt>
      <trkpt lat="48.99209" lon="2.09208">
        <ele>30.5</ele>
        <time>2022-05-15T13:39:20Z</time>
      </trkpt>
      <trkpt lat="48.99185" lon="2.09161">
        <ele>26.7</ele>
        <time>2022-05-15T13:40:12Z</time>
      </trkpt>
      <trkpt lat="48.99169" lon="2.09188">
        <ele>30</ele>
        <time>2022-05-15T13:40:44Z</time>
      </trkpt>
      <trkpt lat="48.99177" lon="2.09201">
        <ele>31.3</ele>
        <time>2022-05-15T13:40:59Z</time>
      </trkpt>
      <trkpt lat="48.99178" lon="2.0923">
        <ele>34</ele>
        <time>2022-05-15T13:41:25Z</time>
      </trkpt>
      <trkpt lat="48.99183" lon="2.09271">
        <ele>36.1</ele>
        <time>2022-05-15T13:42:01Z</time>
      </trkpt>
      <trkpt lat="48.99187" lon="2.09327">
        <ele>39.4</ele>
        <time>2022-05-15T13:42:51Z</time>
      </trkpt>
      <trkpt lat="48.99195" lon="2.09379">
        <ele>43.7</ele>
        <time>2022-05-15T13:43:37Z</time>
      </trkpt>
      <trkpt lat="48.99202" lon="2.09426">
        <ele>38.2</ele>
        <time>2022-05-15T13:44:20Z</time>
      </trkpt>
      <trkpt lat="48.99189" lon="2.09448">
        <ele>34.4</ele>
        <time>2022-05-15T13:44:45Z</time>
      </trkpt>
      <trkpt lat="48.9919" lon="2.09494">
        <ele>34.1</ele>
        <time>2022-05-15T13:45:26Z</time>
      </trkpt>
      <trkpt lat="48.99192" lon="2.09519">
        <ele>34.3</ele>
        <time>2022-05-15T13:45:48Z</time>
      </trkpt>
      <trkpt lat="48.99196" lon="2.09555">
        <ele>32.8</ele>
        <time>2022-05-15T13:46:20Z</time>
      </trkpt>
      <trkpt lat="48.992" lon="2.09602">
        <ele>31.4</ele>
        <time>2022-05-15T13:47:01Z</time>
      </trkpt>
      <trkpt lat="48.99197" lon="2.09622">
        <ele>28</ele>
        <time>2022-05-15T13:47:19Z</time>
      </trkpt>
      <trkpt lat="48.99212" lon="2.09696">
        <ele>38.3</ele>
        <time>2022-05-15T13:48:27Z</time>
      </trkpt>
      <trkpt lat="48.99174" lon="2.09707">
        <ele>24.7</ele>
        <time>2022-05-15T13:49:19Z</time>
      </trkpt>
      <trkpt lat="48.99168" lon="2.09773">
        <ele>24</ele>
        <time>2022-05-15T13:50:17Z</time>
      </trkpt>
      <trkpt lat="48.99167" lon="2.10204">
        <ele>23</ele>
        <time>2022-05-15T13:56:34Z</time>
      </trkpt>
      <trkpt lat="48.99171" lon="2.10258">
        <ele>23.2</ele>
        <time>2022-05-15T13:57:22Z</time>
      </trkpt>
      <trkpt lat="48.99182" lon="2.10384">
        <ele>22.7</ele>
        <time>2022-05-15T13:59:13Z</time>
      </trkpt>
      <trkpt lat="48.99187" lon="2.10449">
        <ele>23.2</ele>
        <time>2022-05-15T14:00:11Z</time>
      </trkpt>
      <trkpt lat="48.99191" lon="2.10488">
        <ele>23.6</ele>
        <time>2022-05-15T14:00:45Z</time>
      </trkpt>
      <trkpt lat="48.99198" lon="2.10629">
        <ele>24.3</ele>
        <time>2022-05-15T14:02:49Z</time>
      </trkpt>
      <trkpt lat="48.99169" lon="2.10835">
        <ele>22.2</ele>
        <time>2022-05-15T14:05:54Z</time>
      </trkpt>
      <trkpt lat="48.99149" lon="2.11007">
        <ele>22.3</ele>
        <time>2022-05-15T14:08:26Z</time>
      </trkpt>
      <trkpt lat="48.99141" lon="2.11144">
        <ele>23.1</ele>
        <time>2022-05-15T14:10:27Z</time>
      </trkpt>
      <trkpt lat="48.99164" lon="2.11274">
        <ele>22.9</ele>
        <time>2022-05-15T14:12:25Z</time>
      </trkpt>
      <trkpt lat="48.99196" lon="2.11494">
        <ele>24</ele>
        <time>2022-05-15T14:15:42Z</time>
      </trkpt>
      <trkpt lat="48.99222" lon="2.11909">
        <ele>23.5</ele>
        <time>2022-05-15T14:21:47Z</time>
      </trkpt>
      <trkpt lat="48.99246" lon="2.12286">
        <ele>25.3</ele>
        <time>2022-05-15T14:27:19Z</time>
      </trkpt>
      <trkpt lat="48.99208" lon="2.12532">
        <ele>22.6</ele>
        <time>2022-05-15T14:31:00Z</time>
      </trkpt>
      <trkpt lat="48.99135" lon="2.12716">
        <ele>22.7</ele>
        <time>2022-05-15T14:34:08Z</time>
      </trkpt>
      <trkpt lat="48.99096" lon="2.12795">
        <ele>22.6</ele>
        <time>2022-05-15T14:35:35Z</time>
      </trkpt>
      <trkpt lat="48.99063" lon="2.13151">
        <ele>23.3</ele>
        <time>2022-05-15T14:40:50Z</time>
      </trkpt>
      <trkpt lat="48.99195" lon="2.13147">
        <ele>30.5</ele>
        <time>2022-05-15T14:43:46Z</time>
      </trkpt>
      <trkpt lat="48.99171" lon="2.13327">
        <ele>28.2</ele>
        <time>2022-05-15T14:46:27Z</time>
      </trkpt>
      <trkpt lat="48.99181" lon="2.13441">
        <ele>33.2</ele>
        <time>2022-05-15T14:48:08Z</time>
      </trkpt>
      <trkpt lat="48.99256" lon="2.13463">
        <ele>53</ele>
        <time>2022-05-15T14:49:49Z</time>
      </trkpt>
      <trkpt lat="48.9934" lon="2.13486">
        <ele>56.4</ele>
        <time>2022-05-15T14:51:43Z</time>
      </trkpt>
      <trkpt lat="48.99393" lon="2.13512">
        <ele>59</ele>
        <time>2022-05-15T14:52:58Z</time>
      </trkpt>
      <trkpt lat="48.99404" lon="2.13597">
        <ele>59.3</ele>
        <time>2022-05-15T14:54:13Z</time>
      </trkpt>
      <trkpt lat="48.99407" lon="2.13704">
        <ele>60.7</ele>
        <time>2022-05-15T14:55:47Z</time>
      </trkpt>
      <trkpt lat="48.99335" lon="2.13706">
        <ele>57.5</ele>
        <time>2022-05-15T14:57:23Z</time>
      </trkpt>
      <trkpt lat="48.99193" lon="2.13715">
        <ele>31.6</ele>
        <time>2022-05-15T15:00:33Z</time>
      </trkpt>
      <trkpt lat="48.99193" lon="2.13715">
        <ele>31.6</ele>
        <time>2022-05-15T15:00:33Z</time>
      </trkpt>
      <trkpt lat="48.9918" lon="2.14002">
        <ele>30.9</ele>
        <time>2022-05-15T15:04:45Z</time>
      </trkpt>
      <trkpt lat="48.99141" lon="2.1426">
        <ele>27.6</ele>
        <time>2022-05-15T15:08:37Z</time>
      </trkpt>
      <trkpt lat="48.99231" lon="2.14276">
        <ele>58.6</ele>
        <time>2022-05-15T15:10:38Z</time>
      </trkpt>
      <trkpt lat="48.99185" lon="2.14546">
        <ele>58.1</ele>
        <time>2022-05-15T15:14:42Z</time>
      </trkpt>
      <trkpt lat="48.99113" lon="2.14845">
        <ele>54.1</ele>
        <time>2022-05-15T15:19:21Z</time>
      </trkpt>
      <trkpt lat="48.9908" lon="2.15038">
        <ele>52.7</ele>
        <time>2022-05-15T15:22:16Z</time>
      </trkpt>
      <trkpt lat="48.99008" lon="2.15184">
        <ele>52.9</ele>
        <time>2022-05-15T15:24:55Z</time>
      </trkpt>
      <trkpt lat="48.98985" lon="2.15165">
        <ele>45.3</ele>
        <time>2022-05-15T15:25:30Z</time>
      </trkpt>
      <trkpt lat="48.98952" lon="2.15143">
        <ele>29.8</ele>
        <time>2022-05-15T15:26:18Z</time>
      </trkpt>
      <trkpt lat="48.98909" lon="2.15247">
        <ele>28.2</ele>
        <time>2022-05-15T15:28:06Z</time>
      </trkpt>
      <trkpt lat="48.98867" lon="2.15367">
        <ele>28</ele>
        <time>2022-05-15T15:30:05Z</time>
      </trkpt>
      <trkpt lat="48.9882" lon="2.15513">
        <ele>27.6</ele>
        <time>2022-05-15T15:32:28Z</time>
      </trkpt>
      <trkpt lat="48.98737" lon="2.15765">
        <ele>28.9</ele>
        <time>2022-05-15T15:36:35Z</time>
      </trkpt>
      <trkpt lat="48.98728" lon="2.15796">
        <ele>28.4</ele>
        <time>2022-05-15T15:37:04Z</time>
      </trkpt>
      <trkpt lat="48.98698" lon="2.15768">
        <ele>25.2</ele>
        <time>2022-05-15T15:37:51Z</time>
      </trkpt>
      <trkpt lat="48.98509" lon="2.15725">
        <ele>21.7</ele>
        <time>2022-05-15T15:42:06Z</time>
      </trkpt>
      <trkpt lat="48.98228" lon="2.1547">
        <ele>25</ele>
        <time>2022-05-15T15:49:23Z</time>
      </trkpt>
      <trkpt lat="48.9809" lon="2.15363">
        <ele>27</ele>
        <time>2022-05-15T15:52:49Z</time>
      </trkpt>
      <trkpt lat="48.98141" lon="2.1518">
        <ele>26.9</ele>
        <time>2022-05-15T15:55:43Z</time>
      </trkpt>
      <trkpt lat="48.97832" lon="2.14847">
        <ele>31</ele>
        <time>2022-05-15T16:04:08Z</time>
      </trkpt>
      <trkpt lat="48.97661" lon="2.15226">
        <ele>31.2</ele>
        <time>2022-05-15T16:10:51Z</time>
      </trkpt>
      <trkpt lat="48.97544" lon="2.15415">
        <ele>32</ele>
        <time>2022-05-15T16:14:39Z</time>
      </trkpt>
      <trkpt lat="48.97478" lon="2.155">
        <ele>32.8</ele>
        <time>2022-05-15T16:16:34Z</time>
      </trkpt>
      <trkpt lat="48.97379" lon="2.15676">
        <ele>31.2</ele>
        <time>2022-05-15T16:19:57Z</time>
      </trkpt>
      <trkpt lat="48.97164" lon="2.15433">
        <ele>32.1</ele>
        <time>2022-05-15T16:25:54Z</time>
      </trkpt>
      <trkpt lat="48.97071" lon="2.15307">
        <ele>32.4</ele>
        <time>2022-05-15T16:28:41Z</time>
      </trkpt>
      <trkpt lat="48.97071" lon="2.15254">
        <ele>32</ele>
        <time>2022-05-15T16:29:27Z</time>
      </trkpt>
      <trkpt lat="48.96998" lon="2.15187">
        <ele>32.1</ele>
        <time>2022-05-15T16:31:21Z</time>
      </trkpt>
      <trkpt lat="48.96996" lon="2.15163">
        <ele>32.1</ele>
        <time>2022-05-15T16:31:42Z</time>
      </trkpt>
      <trkpt lat="48.96995" lon="2.15114">
        <ele>32.2</ele>
        <time>2022-05-15T16:32:25Z</time>
      </trkpt>
      <trkpt lat="48.96983" lon="2.14963">
        <ele>33</ele>
        <time>2022-05-15T16:34:38Z</time>
      </trkpt>
      <trkpt lat="48.96964" lon="2.14712">
        <ele>34</ele>
        <time>2022-05-15T16:38:19Z</time>
      </trkpt>
      <trkpt lat="48.96939" lon="2.14314">
        <ele>35</ele>
        <time>2022-05-15T16:44:10Z</time>
      </trkpt>
      <trkpt lat="48.96694" lon="2.14">
        <ele>37</ele>
        <time>2022-05-15T16:51:17Z</time>
      </trkpt>
      <trkpt lat="48.96524" lon="2.13799">
        <ele>37</ele>
        <time>2022-05-15T16:56:04Z</time>
      </trkpt>
      <trkpt lat="48.96355" lon="2.13593">
        <ele>38.1</ele>
        <time>2022-05-15T17:00:53Z</time>
      </trkpt>
      <trkpt lat="48.96202" lon="2.13389">
        <ele>37</ele>
        <time>2022-05-15T17:05:24Z</time>
      </trkpt>
      <trkpt lat="48.95962" lon="2.13179">
        <ele>38.6</ele>
        <time>2022-05-15T17:11:34Z</time>
      </trkpt>
      <trkpt lat="48.95836" lon="2.13037">
        <ele>40</ele>
        <time>2022-05-15T17:15:03Z</time>
      </trkpt>
      <trkpt lat="48.95679" lon="2.12785">
        <ele>45.4</ele>
        <time>2022-05-15T17:20:07Z</time>
      </trkpt>
      <trkpt lat="48.95498" lon="2.13112">
        <ele>49.6</ele>
        <time>2022-05-15T17:26:22Z</time>
      </trkpt>
      <trkpt lat="48.95477" lon="2.13151">
        <ele>48.5</ele>
        <time>2022-05-15T17:27:06Z</time>
      </trkpt>
      <trkpt lat="48.95465" lon="2.13176">
        <ele>47.9</ele>
        <time>2022-05-15T17:27:33Z</time>
      </trkpt>
      <trkpt lat="48.95456" lon="2.13193">
        <ele>46.7</ele>
        <time>2022-05-15T17:27:52Z</time>
      </trkpt>
      <trkpt lat="48.95396" lon="2.13162">
        <ele>46.3</ele>
        <time>2022-05-15T17:29:17Z</time>
      </trkpt>
      <trkpt lat="48.95326" lon="2.13089">
        <ele>48</ele>
        <time>2022-05-15T17:31:10Z</time>
      </trkpt>
      <trkpt lat="48.95087" lon="2.12933">
        <ele>49.1</ele>
        <time>2022-05-15T17:36:57Z</time>
      </trkpt>
      <trkpt lat="48.95007" lon="2.12864">
        <ele>51</ele>
        <time>2022-05-15T17:39:00Z</time>
      </trkpt>
      <trkpt lat="48.94782" lon="2.12671">
        <ele>58.7</ele>
        <time>2022-05-15T17:44:45Z</time>
      </trkpt>
      <trkpt lat="48.94875" lon="2.11212">
        <ele>61.3</ele>
        <time>2022-05-15T18:06:09Z</time>
      </trkpt>
      <trkpt lat="48.94479" lon="2.10481">
        <ele>63</ele>
        <time>2022-05-15T18:20:00Z</time>
      </trkpt>
      <trkpt lat="48.93964" lon="2.09646">
        <ele>66</ele>
        <time>2022-05-15T18:36:44Z</time>
      </trkpt>
      <trkpt lat="48.93553" lon="2.09032">
        <ele>67.1</ele>
        <time>2022-05-15T18:49:32Z</time>
      </trkpt>
      <trkpt lat="48.93143" lon="2.08406">
        <ele>69</ele>
        <time>2022-05-15T19:02:27Z</time>
      </trkpt>
      <trkpt lat="48.92912" lon="2.08029">
        <ele>69</ele>
        <time>2022-05-15T19:09:59Z</time>
      </trkpt>
      <trkpt lat="48.92724" lon="2.07769">
        <ele>70</ele>
        <time>2022-05-15T19:15:38Z</time>
      </trkpt>
      <trkpt lat="48.92546" lon="2.07488">
        <ele>72</ele>
        <time>2022-05-15T19:21:20Z</time>
      </trkpt>
      <trkpt lat="48.92418" lon="2.07284">
        <ele>71.2</ele>
        <time>2022-05-15T19:25:28Z</time>
      </trkpt>
      <trkpt lat="48.92324" lon="2.07152">
        <ele>71.3</ele>
        <time>2022-05-15T19:28:18Z</time>
      </trkpt>
      <trkpt lat="48.92318" lon="2.07115">
        <ele>71.1</ele>
        <time>2022-05-15T19:28:52Z</time>
      </trkpt>
      <trkpt lat="48.92255" lon="2.06301">
        <ele>64.7</ele>
        <time>2022-05-15T19:40:50Z</time>
      </trkpt>
      <trkpt lat="48.92289" lon="2.06167">
        <ele>63</ele>
        <time>2022-05-15T19:42:56Z</time>
      </trkpt>
      <trkpt lat="48.92337" lon="2.05776">
        <ele>62</ele>
        <time>2022-05-15T19:48:45Z</time>
      </trkpt>
      <trkpt lat="48.92005" lon="2.05074">
        <ele>65.1</ele>
        <time>2022-05-15T20:01:23Z</time>
      </trkpt>
      <trkpt lat="48.91941" lon="2.04907">
        <ele>61.6</ele>
        <time>2022-05-15T20:04:13Z</time>
      </trkpt>
      <trkpt lat="48.92129" lon="2.04588">
        <ele>71.8</ele>
        <time>2022-05-15T20:10:29Z</time>
      </trkpt>
      <trkpt lat="48.92274" lon="2.04378">
        <ele>66.3</ele>
        <time>2022-05-15T20:14:56Z</time>
      </trkpt>
      <trkpt lat="48.92276" lon="2.04352">
        <ele>66.1</ele>
        <time>2022-05-15T20:15:19Z</time>
      </trkpt>
      <trkpt lat="48.92449" lon="2.04247">
        <ele>56.4</ele>
        <time>2022-05-15T20:19:27Z</time>
      </trkpt>
      <trkpt lat="48.92438" lon="2.0421">
        <ele>57.7</ele>
        <time>2022-05-15T20:20:03Z</time>
      </trkpt>
      <trkpt lat="48.9243" lon="2.04153">
        <ele>58.8</ele>
        <time>2022-05-15T20:20:54Z</time>
      </trkpt>
      <trkpt lat="48.9249" lon="2.04105">
        <ele>52.1</ele>
        <time>2022-05-15T20:22:24Z</time>
      </trkpt>
      <trkpt lat="48.92481" lon="2.04093">
        <ele>53.1</ele>
        <time>2022-05-15T20:22:40Z</time>
      </trkpt>
      <trkpt lat="48.92578" lon="2.04024">
        <ele>44.9</ele>
        <time>2022-05-15T20:25:03Z</time>
      </trkpt>
      <trkpt lat="48.92567" lon="2.04084">
        <ele>45.2</ele>
        <time>2022-05-15T20:25:58Z</time>
      </trkpt>
      <trkpt lat="48.92598" lon="2.04083">
        <ele>42.4</ele>
        <time>2022-05-15T20:26:39Z</time>
      </trkpt>
      <trkpt lat="48.92637" lon="2.04125">
        <ele>37.2</ele>
        <time>2022-05-15T20:27:43Z</time>
      </trkpt>
      <trkpt lat="48.92672" lon="2.04095">
        <ele>34.9</ele>
        <time>2022-05-15T20:28:37Z</time>
      </trkpt>
      <trkpt lat="48.92689" lon="2.04113">
        <ele>34.9</ele>
        <time>2022-05-15T20:29:04Z</time>
      </trkpt>
      <trkpt lat="48.92707" lon="2.04134">
        <ele>33.6</ele>
        <time>2022-05-15T20:29:35Z</time>
      </trkpt>
      <trkpt lat="48.92738" lon="2.04081">
        <ele>33</ele>
        <time>2022-05-15T20:30:37Z</time>
      </trkpt>
      <trkpt lat="48.9278" lon="2.0403">
        <ele>31</ele>
        <time>2022-05-15T20:31:49Z</time>
      </trkpt>
      <trkpt lat="48.92871" lon="2.03965">
        <ele>29.2</ele>
        <time>2022-05-15T20:34:03Z</time>
      </trkpt>
      <trkpt lat="48.92905" lon="2.03927">
        <ele>28.4</ele>
        <time>2022-05-15T20:34:59Z</time>
      </trkpt>
      <trkpt lat="48.92971" lon="2.03857">
        <ele>28</ele>
        <time>2022-05-15T20:36:46Z</time>
      </trkpt>
      <trkpt lat="48.92991" lon="2.03897">
        <ele>27.3</ele>
        <time>2022-05-15T20:37:30Z</time>
      </trkpt>
      <trkpt lat="48.93032" lon="2.03862">
        <ele>25.8</ele>
        <time>2022-05-15T20:38:33Z</time>
      </trkpt>
      <trkpt lat="48.93034" lon="2.03835">
        <ele>25.6</ele>
        <time>2022-05-15T20:38:57Z</time>
      </trkpt>
      <trkpt lat="48.93013" lon="2.03786">
        <ele>25.7</ele>
        <time>2022-05-15T20:39:48Z</time>
      </trkpt>
      <trkpt lat="48.93082" lon="2.03695">
        <ele>24</ele>
        <time>2022-05-15T20:41:50Z</time>
      </trkpt>
      <trkpt lat="48.93052" lon="2.03632">
        <ele>24</ele>
        <time>2022-05-15T20:42:58Z</time>
      </trkpt>
      <trkpt lat="48.93143" lon="2.0351">
        <ele>22</ele>
        <time>2022-05-15T20:45:40Z</time>
      </trkpt>
      <trkpt lat="48.93159" lon="2.03507">
        <ele>20.3</ele>
        <time>2022-05-15T20:46:02Z</time>
      </trkpt>
      <trkpt lat="48.9328" lon="2.03739">
        <ele>20.1</ele>
        <time>2022-05-15T20:50:21Z</time>
      </trkpt>
      <trkpt lat="48.93326" lon="2.03799">
        <ele>20.5</ele>
        <time>2022-05-15T20:51:42Z</time>
      </trkpt>
      <trkpt lat="48.93435" lon="2.03861">
        <ele>21.3</ele>
        <time>2022-05-15T20:54:17Z</time>
      </trkpt>
      <trkpt lat="48.93554" lon="2.03948">
        <ele>22.2</ele>
        <time>2022-05-15T20:57:14Z</time>
      </trkpt>
      <trkpt lat="48.93595" lon="2.03992">
        <ele>22.8</ele>
        <time>2022-05-15T20:58:21Z</time>
      </trkpt>
      <trkpt lat="48.93715" lon="2.03782">
        <ele>25.5</ele>
        <time>2022-05-15T21:02:25Z</time>
      </trkpt>
      <trkpt lat="48.93752" lon="2.03842">
        <ele>21.6</ele>
        <time>2022-05-15T21:03:37Z</time>
      </trkpt>
      <trkpt lat="48.9417" lon="2.0413">
        <ele>24.6</ele>
        <time>2022-05-15T21:13:49Z</time>
      </trkpt>
      <trkpt lat="48.95378" lon="2.04581">
        <ele>20.7</ele>
        <time>2022-05-15T21:41:29Z</time>
      </trkpt>
      <trkpt lat="48.95414" lon="2.04525">
        <ele>22</ele>
        <time>2022-05-15T21:42:37Z</time>
      </trkpt>
      <trkpt lat="48.9548" lon="2.04512">
        <ele>22</ele>
        <time>2022-05-15T21:44:06Z</time>
      </trkpt>
      <trkpt lat="48.95542" lon="2.0449">
        <ele>22</ele>
        <time>2022-05-15T21:45:31Z</time>
      </trkpt>
      <trkpt lat="48.95564" lon="2.04416">
        <ele>30.2</ele>
        <time>2022-05-15T21:46:42Z</time>
      </trkpt>
      <trkpt lat="48.95833" lon="2.04459">
        <ele>24.9</ele>
        <time>2022-05-15T21:52:43Z</time>
      </trkpt>
      <trkpt lat="48.95867" lon="2.04484">
        <ele>23.2</ele>
        <time>2022-05-15T21:53:34Z</time>
      </trkpt>
      <trkpt lat="48.95962" lon="2.04592">
        <ele>21.5</ele>
        <time>2022-05-15T21:56:12Z</time>
      </trkpt>
      <trkpt lat="48.96445" lon="2.04574">
        <ele>33.1</ele>
        <time>2022-05-15T22:06:57Z</time>
      </trkpt>
      <trkpt lat="48.97175" lon="2.05084">
        <ele>23</ele>
        <time>2022-05-15T22:24:48Z</time>
      </trkpt>
      <trkpt lat="48.9757" lon="2.05508">
        <ele>23.5</ele>
        <time>2022-05-15T22:35:33Z</time>
      </trkpt>
      <trkpt lat="48.97822" lon="2.05742">
        <ele>24.6</ele>
        <time>2022-05-15T22:42:07Z</time>
      </trkpt>
      <trkpt lat="48.98281" lon="2.06243">
        <ele>21.9</ele>
        <time>2022-05-15T22:54:40Z</time>
      </trkpt>
      <trkpt lat="48.98421" lon="2.06375">
        <ele>23.2</ele>
        <time>2022-05-15T22:58:20Z</time>
      </trkpt>
      <trkpt lat="48.98586" lon="2.06828">
        <ele>21.5</ele>
        <time>2022-05-15T23:05:54Z</time>
      </trkpt>
      <trkpt lat="48.98741" lon="2.07046">
        <ele>22</ele>
        <time>2022-05-15T23:10:35Z</time>
      </trkpt>
      <trkpt lat="48.98825" lon="2.07084">
        <ele>23.6</ele>
        <time>2022-05-15T23:12:32Z</time>
      </trkpt>
      <trkpt lat="48.98921" lon="2.07111">
        <ele>23.8</ele>
        <time>2022-05-15T23:14:43Z</time>
      </trkpt>
      <trkpt lat="48.98879" lon="2.07254">
        <ele>23.1</ele>
        <time>2022-05-15T23:17:00Z</time>
      </trkpt>
      <trkpt lat="48.98851" lon="2.0724">
        <ele>22.5</ele>
        <time>2022-05-15T23:17:39Z</time>
      </trkpt>
      <trkpt lat="48.9879" lon="2.07212">
        <ele>22</ele>
        <time>2022-05-15T23:19:04Z</time>
      </trkpt>
      <trkpt lat="48.98768" lon="2.07209">
        <ele>21.9</ele>
        <time>2022-05-15T23:19:34Z</time>
      </trkpt>
      <trkpt lat="48.9875" lon="2.07224">
        <ele>22.1</ele>
        <time>2022-05-15T23:20:01Z</time>
      </trkpt>
      <trkpt lat="48.98743" lon="2.0727">
        <ele>22.5</ele>
        <time>2022-05-15T23:20:42Z</time>
      </trkpt>
      <trkpt lat="48.98792" lon="2.07548">
        <ele>23</ele>
        <time>2022-05-15T23:24:54Z</time>
      </trkpt>
      <trkpt lat="48.98844" lon="2.07761">
        <ele>22.2</ele>
        <time>2022-05-15T23:28:13Z</time>
      </trkpt>
      <trkpt lat="48.98901" lon="2.0803">
        <ele>22.8</ele>
        <time>2022-05-15T23:32:21Z</time>
      </trkpt>
      <trkpt lat="48.9893" lon="2.08127">
        <ele>22.7</ele>
        <time>2022-05-15T23:33:54Z</time>
      </trkpt>
      <trkpt lat="48.98952" lon="2.08225">
        <ele>22.6</ele>
        <time>2022-05-15T23:35:25Z</time>
      </trkpt>
      <trkpt lat="48.99047" lon="2.08658">
        <ele>23.3</ele>
        <time>2022-05-15T23:42:05Z</time>
      </trkpt>
    </trkseg>
  </trk>
</gpx>